Portada
METAR-TAF:

METAR-TAF

Aeroports :

Cayo Largo del Sur, Cuba

latitud: 21-37N, longitud: 081-33W, altitud: 2 m

Observació

L'informe es va fer fa 1 hora i 16 minuts, a les 13:50 UTC
Vent 8 kt del Nord-Est
Temperatura 28°C
Humitat 74%
Pressió 1014 hPa
Visibilitat: 9000 m
Escasses núvols a una alçada de 2000 ft

METAR: MUCL 131350Z 05008KT 9000 FEW020 28/23 Q1014

Hora: 10:06 (15:06 UTC)

Pronòstic

L'informe es va fer fa 4 hores i 6 minuts, a les 11:00 UTC
Pronòstic vàlid del 13 a les 12 UTC al 13 a les 24 UTC
Vent 3 kt amb direcció variable
Visibilitat: 9000 m
Núvols disperses a una alçada de 2000 ft
Evolucionant progressivament
l' 13 a les 15 UTC al 13 a les 17 UTC
Vent 12 kt del Est/Nord-Est

TAF: MUCL 131100Z 1312/1324 VRB03KT 9000 SCT020 BECMG 1315/1317 06012KT

Observacions i pronòstics meteorològics de més de 4000 aeroports (METAR i TAF).

Les estacions disponibles són els punts grocs i vermells al mapa.

Posi el ratolí al punt desitjat per veure el nom de l'estació.

Feu clic per veure les observacions i els pronòstics meteorològics.

Per canviar el mapa: feu clic els botons verds amb una creu de color negre per apropar; al botó verd amb un guió per allunyar la imatge; o en les fletxes verdes per a mapes adjacents.


METAR-TAF: